sensor_id;sensor_type;location;lat;lon;timestamp;P1;durP1;ratioP1;P2;durP2;ratioP2
8889;SDS011;4481;43.406;24.454;2022-07-06T00:01:16;10.40;;;6.47;;
8889;SDS011;4481;43.406;24.454;2022-07-06T00:03:42;9.00;;;6.83;;
8889;SDS011;4481;43.406;24.454;2022-07-06T00:06:08;7.90;;;7.00;;
8889;SDS011;4481;43.406;24.454;2022-07-06T00:08:34;9.10;;;7.40;;
8889;SDS011;4481;43.406;24.454;2022-07-06T00:11:00;9.23;;;6.77;;
8889;SDS011;4481;43.406;24.454;2022-07-06T00:13:27;9.23;;;6.33;;
8889;SDS011;4481;43.406;24.454;2022-07-06T00:15:54;9.70;;;6.90;;
8889;SDS011;4481;43.406;24.454;2022-07-06T00:18:20;15.63;;;7.00;;
8889;SDS011;4481;43.406;24.454;2022-07-06T00:20:46;9.00;;;6.90;;
8889;SDS011;4481;43.406;24.454;2022-07-06T00:23:12;9.30;;;7.27;;
8889;SDS011;4481;43.406;24.454;2022-07-06T00:25:38;10.90;;;7.13;;
8889;SDS011;4481;43.406;24.454;2022-07-06T00:28:04;9.13;;;6.93;;
8889;SDS011;4481;43.406;24.454;2022-07-06T00:30:31;11.20;;;7.03;;
8889;SDS011;4481;43.406;24.454;2022-07-06T00:32:58;11.67;;;7.37;;
8889;SDS011;4481;43.406;24.454;2022-07-06T00:35:24;10.90;;;7.17;;
8889;SDS011;4481;43.406;24.454;2022-07-06T00:37:50;9.30;;;7.40;;
8889;SDS011;4481;43.406;24.454;2022-07-06T00:40:17;9.00;;;6.70;;
8889;SDS011;4481;43.406;24.454;2022-07-06T00:42:44;10.07;;;6.27;;
8889;SDS011;4481;43.406;24.454;2022-07-06T00:45:11;11.43;;;7.37;;
8889;SDS011;4481;43.406;24.454;2022-07-06T00:47:39;8.57;;;7.40;;
8889;SDS011;4481;43.406;24.454;2022-07-06T00:50:07;8.57;;;6.83;;
8889;SDS011;4481;43.406;24.454;2022-07-06T00:52:43;13.30;;;7.70;;
8889;SDS011;4481;43.406;24.454;2022-07-06T00:55:11;14.40;;;7.33;;
8889;SDS011;4481;43.406;24.454;2022-07-06T00:57:39;9.20;;;7.10;;
8889;SDS011;4481;43.406;24.454;2022-07-06T01:00:07;9.70;;;7.63;;
8889;SDS011;4481;43.406;24.454;2022-07-06T01:02:35;10.87;;;7.70;;
8889;SDS011;4481;43.406;24.454;2022-07-06T01:05:04;9.90;;;7.13;;
8889;SDS011;4481;43.406;24.454;2022-07-06T01:07:32;10.40;;;6.93;;
8889;SDS011;4481;43.406;24.454;2022-07-06T01:09:59;9.83;;;7.73;;
8889;SDS011;4481;43.406;24.454;2022-07-06T01:12:26;12.57;;;7.17;;
8889;SDS011;4481;43.406;24.454;2022-07-06T01:14:52;13.50;;;7.73;;
8889;SDS011;4481;43.406;24.454;2022-07-06T01:17:19;12.97;;;7.43;;
8889;SDS011;4481;43.406;24.454;2022-07-06T01:19:46;8.50;;;6.67;;
8889;SDS011;4481;43.406;24.454;2022-07-06T01:22:13;10.53;;;7.47;;
8889;SDS011;4481;43.406;24.454;2022-07-06T01:24:39;8.93;;;6.87;;
8889;SDS011;4481;43.406;24.454;2022-07-06T01:27:05;10.33;;;6.77;;
8889;SDS011;4481;43.406;24.454;2022-07-06T01:29:32;9.97;;;7.10;;
8889;SDS011;4481;43.406;24.454;2022-07-06T01:31:59;9.47;;;7.07;;
8889;SDS011;4481;43.406;24.454;2022-07-06T01:34:26;12.10;;;7.30;;
8889;SDS011;4481;43.406;24.454;2022-07-06T01:36:53;15.27;;;7.63;;
8889;SDS011;4481;43.406;24.454;2022-07-06T01:39:20;11.27;;;8.03;;
8889;SDS011;4481;43.406;24.454;2022-07-06T01:41:47;12.33;;;7.70;;
8889;SDS011;4481;43.406;24.454;2022-07-06T01:44:13;13.87;;;6.90;;
8889;SDS011;4481;43.406;24.454;2022-07-06T01:46:39;11.80;;;8.20;;
8889;SDS011;4481;43.406;24.454;2022-07-06T01:49:05;21.33;;;7.87;;
8889;SDS011;4481;43.406;24.454;2022-07-06T01:51:32;12.87;;;7.20;;
8889;SDS011;4481;43.406;24.454;2022-07-06T01:53:58;14.17;;;7.50;;
8889;SDS011;4481;43.406;24.454;2022-07-06T01:56:25;14.77;;;7.60;;
8889;SDS011;4481;43.406;24.454;2022-07-06T01:58:51;10.90;;;6.63;;
8889;SDS011;4481;43.406;24.454;2022-07-06T02:01:18;12.20;;;7.70;;
8889;SDS011;4481;43.406;24.454;2022-07-06T02:03:45;10.20;;;7.33;;
8889;SDS011;4481;43.406;24.454;2022-07-06T02:06:12;11.53;;;6.67;;
8889;SDS011;4481;43.406;24.454;2022-07-06T02:08:39;9.47;;;7.30;;
8889;SDS011;4481;43.406;24.454;2022-07-06T02:11:06;17.43;;;7.60;;
8889;SDS011;4481;43.406;24.454;2022-07-06T02:13:34;12.80;;;8.17;;
8889;SDS011;4481;43.406;24.454;2022-07-06T02:16:01;8.77;;;6.93;;
8889;SDS011;4481;43.406;24.454;2022-07-06T02:18:28;9.97;;;6.67;;
8889;SDS011;4481;43.406;24.454;2022-07-06T02:20:54;11.20;;;7.27;;
8889;SDS011;4481;43.406;24.454;2022-07-06T02:23:21;10.47;;;7.27;;
8889;SDS011;4481;43.406;24.454;2022-07-06T02:25:47;13.67;;;7.73;;
8889;SDS011;4481;43.406;24.454;2022-07-06T02:28:13;11.70;;;6.83;;
8889;SDS011;4481;43.406;24.454;2022-07-06T02:30:40;10.90;;;7.13;;
8889;SDS011;4481;43.406;24.454;2022-07-06T02:33:06;12.97;;;8.30;;
8889;SDS011;4481;43.406;24.454;2022-07-06T02:35:32;10.47;;;7.60;;
8889;SDS011;4481;43.406;24.454;2022-07-06T02:37:59;18.37;;;8.30;;
8889;SDS011;4481;43.406;24.454;2022-07-06T02:40:25;10.10;;;7.57;;
8889;SDS011;4481;43.406;24.454;2022-07-06T02:42:51;14.40;;;7.57;;
8889;SDS011;4481;43.406;24.454;2022-07-06T02:45:18;11.90;;;8.07;;
8889;SDS011;4481;43.406;24.454;2022-07-06T02:47:45;9.57;;;7.70;;
8889;SDS011;4481;43.406;24.454;2022-07-06T02:50:11;12.57;;;7.77;;
8889;SDS011;4481;43.406;24.454;2022-07-06T02:52:37;10.97;;;7.00;;
8889;SDS011;4481;43.406;24.454;2022-07-06T02:55:03;12.57;;;8.47;;
8889;SDS011;4481;43.406;24.454;2022-07-06T02:57:30;10.20;;;6.73;;
8889;SDS011;4481;43.406;24.454;2022-07-06T02:59:56;10.13;;;7.60;;
8889;SDS011;4481;43.406;24.454;2022-07-06T03:02:23;14.43;;;8.30;;
8889;SDS011;4481;43.406;24.454;2022-07-06T03:04:50;12.30;;;8.40;;
8889;SDS011;4481;43.406;24.454;2022-07-06T03:07:16;11.80;;;7.83;;
8889;SDS011;4481;43.406;24.454;2022-07-06T03:09:42;11.53;;;7.80;;
8889;SDS011;4481;43.406;24.454;2022-07-06T03:12:09;11.73;;;8.53;;
8889;SDS011;4481;43.406;24.454;2022-07-06T03:14:35;12.83;;;8.40;;
8889;SDS011;4481;43.406;24.454;2022-07-06T03:17:01;15.20;;;8.53;;
8889;SDS011;4481;43.406;24.454;2022-07-06T03:19:28;10.93;;;7.63;;
8889;SDS011;4481;43.406;24.454;2022-07-06T03:21:55;14.43;;;8.57;;
8889;SDS011;4481;43.406;24.454;2022-07-06T03:24:21;12.03;;;7.83;;
8889;SDS011;4481;43.406;24.454;2022-07-06T03:26:47;11.07;;;8.20;;
8889;SDS011;4481;43.406;24.454;2022-07-06T03:29:13;13.70;;;8.57;;
8889;SDS011;4481;43.406;24.454;2022-07-06T03:31:39;10.77;;;8.00;;
8889;SDS011;4481;43.406;24.454;2022-07-06T03:34:06;9.87;;;8.00;;
8889;SDS011;4481;43.406;24.454;2022-07-06T03:36:32;13.50;;;8.80;;
8889;SDS011;4481;43.406;24.454;2022-07-06T03:38:59;12.73;;;8.70;;
8889;SDS011;4481;43.406;24.454;2022-07-06T03:41:25;13.80;;;8.50;;
8889;SDS011;4481;43.406;24.454;2022-07-06T03:43:51;15.63;;;8.77;;
8889;SDS011;4481;43.406;24.454;2022-07-06T03:46:17;10.63;;;7.70;;
8889;SDS011;4481;43.406;24.454;2022-07-06T03:48:43;12.70;;;8.23;;
8889;SDS011;4481;43.406;24.454;2022-07-06T03:51:09;13.90;;;8.90;;
8889;SDS011;4481;43.406;24.454;2022-07-06T03:53:36;13.57;;;7.53;;
8889;SDS011;4481;43.406;24.454;2022-07-06T03:56:04;12.03;;;8.50;;
8889;SDS011;4481;43.406;24.454;2022-07-06T03:58:49;11.30;;;8.90;;
8889;SDS011;4481;43.406;24.454;2022-07-06T04:01:15;15.13;;;8.97;;
8889;SDS011;4481;43.406;24.454;2022-07-06T04:03:41;10.33;;;8.50;;
8889;SDS011;4481;43.406;24.454;2022-07-06T04:06:07;11.83;;;7.97;;
8889;SDS011;4481;43.406;24.454;2022-07-06T04:08:33;9.93;;;7.97;;
8889;SDS011;4481;43.406;24.454;2022-07-06T04:11:00;11.13;;;8.77;;
8889;SDS011;4481;43.406;24.454;2022-07-06T04:13:26;14.23;;;8.97;;
8889;SDS011;4481;43.406;24.454;2022-07-06T04:15:53;14.37;;;8.53;;
8889;SDS011;4481;43.406;24.454;2022-07-06T04:18:19;16.13;;;8.50;;
8889;SDS011;4481;43.406;24.454;2022-07-06T04:20:45;13.50;;;8.63;;
8889;SDS011;4481;43.406;24.454;2022-07-06T04:23:11;12.50;;;7.77;;
8889;SDS011;4481;43.406;24.454;2022-07-06T04:25:37;10.37;;;7.77;;
8889;SDS011;4481;43.406;24.454;2022-07-06T04:28:04;9.30;;;7.87;;
8889;SDS011;4481;43.406;24.454;2022-07-06T04:30:30;13.70;;;8.83;;
8889;SDS011;4481;43.406;24.454;2022-07-06T04:32:57;11.83;;;8.33;;
8889;SDS011;4481;43.406;24.454;2022-07-06T04:35:23;12.80;;;9.40;;
8889;SDS011;4481;43.406;24.454;2022-07-06T04:37:49;14.13;;;9.90;;
8889;SDS011;4481;43.406;24.454;2022-07-06T04:40:15;12.50;;;8.47;;
8889;SDS011;4481;43.406;24.454;2022-07-06T04:42:42;11.57;;;8.37;;
8889;SDS011;4481;43.406;24.454;2022-07-06T04:45:08;11.13;;;8.13;;
8889;SDS011;4481;43.406;24.454;2022-07-06T04:47:36;14.37;;;9.97;;
8889;SDS011;4481;43.406;24.454;2022-07-06T04:50:02;26.07;;;13.63;;
8889;SDS011;4481;43.406;24.454;2022-07-06T04:52:29;17.17;;;9.63;;
8889;SDS011;4481;43.406;24.454;2022-07-06T04:54:56;12.47;;;9.50;;
8889;SDS011;4481;43.406;24.454;2022-07-06T04:57:22;11.77;;;9.07;;
8889;SDS011;4481;43.406;24.454;2022-07-06T04:59:50;11.93;;;8.70;;
8889;SDS011;4481;43.406;24.454;2022-07-06T05:02:17;11.50;;;8.20;;
8889;SDS011;4481;43.406;24.454;2022-07-06T05:04:44;13.57;;;8.90;;
8889;SDS011;4481;43.406;24.454;2022-07-06T05:07:10;12.53;;;8.43;;
8889;SDS011;4481;43.406;24.454;2022-07-06T05:09:36;14.83;;;10.00;;
8889;SDS011;4481;43.406;24.454;2022-07-06T05:12:02;12.97;;;8.77;;
8889;SDS011;4481;43.406;24.454;2022-07-06T05:14:29;12.23;;;8.93;;
8889;SDS011;4481;43.406;24.454;2022-07-06T05:16:55;12.70;;;8.70;;
8889;SDS011;4481;43.406;24.454;2022-07-06T05:19:21;10.83;;;8.37;;
8889;SDS011;4481;43.406;24.454;2022-07-06T05:21:49;13.23;;;9.53;;
8889;SDS011;4481;43.406;24.454;2022-07-06T05:24:15;12.87;;;9.27;;
8889;SDS011;4481;43.406;24.454;2022-07-06T05:26:41;13.90;;;9.27;;
8889;SDS011;4481;43.406;24.454;2022-07-06T05:29:07;13.67;;;9.13;;
8889;SDS011;4481;43.406;24.454;2022-07-06T05:31:33;11.23;;;8.60;;
8889;SDS011;4481;43.406;24.454;2022-07-06T05:34:00;11.43;;;9.30;;
8889;SDS011;4481;43.406;24.454;2022-07-06T05:36:26;12.37;;;9.63;;
8889;SDS011;4481;43.406;24.454;2022-07-06T05:38:53;13.20;;;9.23;;
8889;SDS011;4481;43.406;24.454;2022-07-06T05:41:20;12.63;;;8.83;;
8889;SDS011;4481;43.406;24.454;2022-07-06T05:43:46;12.77;;;9.17;;
8889;SDS011;4481;43.406;24.454;2022-07-06T05:46:12;14.00;;;9.17;;
8889;SDS011;4481;43.406;24.454;2022-07-06T05:48:38;16.17;;;9.83;;
8889;SDS011;4481;43.406;24.454;2022-07-06T05:51:22;12.40;;;10.10;;
8889;SDS011;4481;43.406;24.454;2022-07-06T05:53:48;15.67;;;9.43;;
8889;SDS011;4481;43.406;24.454;2022-07-06T05:56:15;12.50;;;8.83;;
8889;SDS011;4481;43.406;24.454;2022-07-06T05:58:42;11.97;;;8.33;;
8889;SDS011;4481;43.406;24.454;2022-07-06T06:01:08;11.60;;;8.73;;
8889;SDS011;4481;43.406;24.454;2022-07-06T06:03:35;14.70;;;9.47;;
8889;SDS011;4481;43.406;24.454;2022-07-06T06:06:01;14.70;;;11.60;;
8889;SDS011;4481;43.406;24.454;2022-07-06T06:08:27;12.23;;;9.33;;
8889;SDS011;4481;43.406;24.454;2022-07-06T06:10:54;13.37;;;9.33;;
8889;SDS011;4481;43.406;24.454;2022-07-06T06:13:20;13.17;;;10.50;;
8889;SDS011;4481;43.406;24.454;2022-07-06T06:15:47;17.93;;;10.70;;
8889;SDS011;4481;43.406;24.454;2022-07-06T06:18:13;12.03;;;9.73;;
8889;SDS011;4481;43.406;24.454;2022-07-06T06:20:41;13.50;;;8.83;;
8889;SDS011;4481;43.406;24.454;2022-07-06T06:23:08;14.00;;;8.97;;
8889;SDS011;4481;43.406;24.454;2022-07-06T06:25:34;10.50;;;8.60;;
8889;SDS011;4481;43.406;24.454;2022-07-06T06:28:02;11.70;;;8.17;;
8889;SDS011;4481;43.406;24.454;2022-07-06T06:30:30;13.47;;;8.13;;
8889;SDS011;4481;43.406;24.454;2022-07-06T06:33:06;10.70;;;8.40;;
8889;SDS011;4481;43.406;24.454;2022-07-06T06:35:34;11.80;;;8.33;;
8889;SDS011;4481;43.406;24.454;2022-07-06T06:38:00;8.90;;;8.00;;
8889;SDS011;4481;43.406;24.454;2022-07-06T06:40:26;9.70;;;8.23;;
8889;SDS011;4481;43.406;24.454;2022-07-06T06:42:53;11.07;;;7.87;;
8889;SDS011;4481;43.406;24.454;2022-07-06T06:45:19;12.70;;;9.40;;
8889;SDS011;4481;43.406;24.454;2022-07-06T06:47:46;10.33;;;8.40;;
8889;SDS011;4481;43.406;24.454;2022-07-06T06:50:12;13.17;;;8.80;;
8889;SDS011;4481;43.406;24.454;2022-07-06T06:52:38;13.43;;;8.37;;
8889;SDS011;4481;43.406;24.454;2022-07-06T06:55:05;11.27;;;8.10;;
8889;SDS011;4481;43.406;24.454;2022-07-06T06:57:31;10.10;;;8.33;;
8889;SDS011;4481;43.406;24.454;2022-07-06T06:59:58;10.23;;;7.57;;
8889;SDS011;4481;43.406;24.454;2022-07-06T07:02:24;8.30;;;7.37;;
8889;SDS011;4481;43.406;24.454;2022-07-06T07:04:51;8.90;;;6.87;;
8889;SDS011;4481;43.406;24.454;2022-07-06T07:07:17;9.23;;;7.10;;
8889;SDS011;4481;43.406;24.454;2022-07-06T07:09:43;10.00;;;7.30;;
8889;SDS011;4481;43.406;24.454;2022-07-06T07:12:09;7.97;;;7.13;;
8889;SDS011;4481;43.406;24.454;2022-07-06T07:14:37;10.97;;;6.03;;
8889;SDS011;4481;43.406;24.454;2022-07-06T07:17:03;8.20;;;7.00;;
8889;SDS011;4481;43.406;24.454;2022-07-06T07:19:29;10.03;;;7.10;;
8889;SDS011;4481;43.406;24.454;2022-07-06T07:21:56;8.40;;;7.07;;
8889;SDS011;4481;43.406;24.454;2022-07-06T07:24:22;8.70;;;7.00;;
8889;SDS011;4481;43.406;24.454;2022-07-06T07:26:49;7.33;;;6.53;;
8889;SDS011;4481;43.406;24.454;2022-07-06T07:29:15;8.53;;;7.33;;
8889;SDS011;4481;43.406;24.454;2022-07-06T07:31:41;8.77;;;6.50;;
8889;SDS011;4481;43.406;24.454;2022-07-06T07:34:07;9.33;;;6.93;;
8889;SDS011;4481;43.406;24.454;2022-07-06T07:36:34;11.20;;;7.37;;
8889;SDS011;4481;43.406;24.454;2022-07-06T07:39:01;10.47;;;7.30;;
8889;SDS011;4481;43.406;24.454;2022-07-06T07:41:27;8.63;;;6.60;;
8889;SDS011;4481;43.406;24.454;2022-07-06T07:43:53;10.27;;;7.43;;
8889;SDS011;4481;43.406;24.454;2022-07-06T07:46:20;8.50;;;7.60;;
8889;SDS011;4481;43.406;24.454;2022-07-06T07:48:46;10.67;;;6.97;;
8889;SDS011;4481;43.406;24.454;2022-07-06T07:51:12;10.00;;;6.37;;
8889;SDS011;4481;43.406;24.454;2022-07-06T07:53:38;10.23;;;7.03;;
8889;SDS011;4481;43.406;24.454;2022-07-06T07:56:05;12.73;;;6.50;;
8889;SDS011;4481;43.406;24.454;2022-07-06T07:58:31;8.27;;;6.07;;
8889;SDS011;4481;43.406;24.454;2022-07-06T08:00:58;7.80;;;5.93;;
8889;SDS011;4481;43.406;24.454;2022-07-06T08:03:24;6.43;;;5.33;;
8889;SDS011;4481;43.406;24.454;2022-07-06T08:05:50;8.50;;;5.80;;
8889;SDS011;4481;43.406;24.454;2022-07-06T08:08:16;8.00;;;6.80;;
8889;SDS011;4481;43.406;24.454;2022-07-06T08:10:42;6.90;;;5.53;;
8889;SDS011;4481;43.406;24.454;2022-07-06T08:13:10;6.97;;;5.60;;
8889;SDS011;4481;43.406;24.454;2022-07-06T08:15:36;13.60;;;5.87;;
8889;SDS011;4481;43.406;24.454;2022-07-06T08:18:03;10.37;;;6.00;;
8889;SDS011;4481;43.406;24.454;2022-07-06T08:20:29;7.13;;;5.60;;
8889;SDS011;4481;43.406;24.454;2022-07-06T08:22:55;5.37;;;4.87;;
8889;SDS011;4481;43.406;24.454;2022-07-06T08:25:22;5.10;;;4.60;;
8889;SDS011;4481;43.406;24.454;2022-07-06T08:27:48;8.57;;;4.90;;
8889;SDS011;4481;43.406;24.454;2022-07-06T08:30:15;4.43;;;4.03;;
8889;SDS011;4481;43.406;24.454;2022-07-06T08:32:42;5.60;;;4.30;;
8889;SDS011;4481;43.406;24.454;2022-07-06T08:35:08;6.70;;;4.13;;
8889;SDS011;4481;43.406;24.454;2022-07-06T08:37:35;5.43;;;4.90;;
8889;SDS011;4481;43.406;24.454;2022-07-06T08:40:01;6.17;;;5.23;;
8889;SDS011;4481;43.406;24.454;2022-07-06T08:42:29;5.20;;;4.60;;
8889;SDS011;4481;43.406;24.454;2022-07-06T08:44:58;7.23;;;5.30;;
8889;SDS011;4481;43.406;24.454;2022-07-06T08:47:26;8.30;;;4.63;;
8889;SDS011;4481;43.406;24.454;2022-07-06T08:49:53;5.00;;;4.57;;
8889;SDS011;4481;43.406;24.454;2022-07-06T08:52:20;8.87;;;6.07;;
8889;SDS011;4481;43.406;24.454;2022-07-06T08:54:47;10.77;;;5.00;;
8889;SDS011;4481;43.406;24.454;2022-07-06T08:57:15;6.10;;;5.50;;
8889;SDS011;4481;43.406;24.454;2022-07-06T08:59:41;10.03;;;5.53;;
8889;SDS011;4481;43.406;24.454;2022-07-06T09:02:08;5.57;;;4.97;;
8889;SDS011;4481;43.406;24.454;2022-07-06T09:04:36;7.07;;;5.30;;
8889;SDS011;4481;43.406;24.454;2022-07-06T09:07:03;6.87;;;5.70;;
8889;SDS011;4481;43.406;24.454;2022-07-06T09:09:30;5.77;;;5.17;;
8889;SDS011;4481;43.406;24.454;2022-07-06T09:11:56;5.47;;;4.80;;
8889;SDS011;4481;43.406;24.454;2022-07-06T09:14:23;7.40;;;5.53;;
8889;SDS011;4481;43.406;24.454;2022-07-06T09:16:51;7.07;;;6.37;;
8889;SDS011;4481;43.406;24.454;2022-07-06T09:19:18;7.90;;;6.90;;
8889;SDS011;4481;43.406;24.454;2022-07-06T09:21:45;11.40;;;6.87;;
8889;SDS011;4481;43.406;24.454;2022-07-06T09:24:12;10.93;;;7.50;;
8889;SDS011;4481;43.406;24.454;2022-07-06T09:26:38;9.07;;;7.07;;
8889;SDS011;4481;43.406;24.454;2022-07-06T09:29:06;7.17;;;6.40;;
8889;SDS011;4481;43.406;24.454;2022-07-06T09:31:32;7.53;;;6.60;;
8889;SDS011;4481;43.406;24.454;2022-07-06T09:34:00;9.30;;;6.90;;
8889;SDS011;4481;43.406;24.454;2022-07-06T09:39:18;7.60;;;6.83;;
8889;SDS011;4481;43.406;24.454;2022-07-06T09:41:50;8.33;;;6.57;;
8889;SDS011;4481;43.406;24.454;2022-07-06T09:44:18;7.37;;;6.67;;
8889;SDS011;4481;43.406;24.454;2022-07-06T09:46:46;7.47;;;6.73;;
8889;SDS011;4481;43.406;24.454;2022-07-06T09:49:13;9.33;;;6.97;;
8889;SDS011;4481;43.406;24.454;2022-07-06T09:51:43;7.87;;;6.73;;
8889;SDS011;4481;43.406;24.454;2022-07-06T09:54:10;9.83;;;6.70;;
8889;SDS011;4481;43.406;24.454;2022-07-06T09:56:37;8.13;;;7.33;;
8889;SDS011;4481;43.406;24.454;2022-07-06T09:59:10;8.73;;;7.17;;
8889;SDS011;4481;43.406;24.454;2022-07-06T10:01:37;9.03;;;7.60;;
8889;SDS011;4481;43.406;24.454;2022-07-06T10:04:05;10.30;;;6.93;;
8889;SDS011;4481;43.406;24.454;2022-07-06T10:06:31;8.07;;;7.37;;
8889;SDS011;4481;43.406;24.454;2022-07-06T10:08:58;7.63;;;6.90;;
8889;SDS011;4481;43.406;24.454;2022-07-06T10:11:25;8.07;;;7.30;;
8889;SDS011;4481;43.406;24.454;2022-07-06T10:13:54;8.10;;;7.17;;
8889;SDS011;4481;43.406;24.454;2022-07-06T10:16:22;12.40;;;7.43;;
8889;SDS011;4481;43.406;24.454;2022-07-06T10:18:48;10.10;;;7.30;;
8889;SDS011;4481;43.406;24.454;2022-07-06T10:21:18;11.73;;;7.90;;
8889;SDS011;4481;43.406;24.454;2022-07-06T10:23:45;9.93;;;6.80;;
8889;SDS011;4481;43.406;24.454;2022-07-06T10:26:12;8.40;;;7.50;;
8889;SDS011;4481;43.406;24.454;2022-07-06T10:28:41;8.43;;;6.30;;
8889;SDS011;4481;43.406;24.454;2022-07-06T10:31:08;9.03;;;7.23;;
8889;SDS011;4481;43.406;24.454;2022-07-06T10:33:35;8.77;;;7.43;;
8889;SDS011;4481;43.406;24.454;2022-07-06T10:36:03;12.57;;;7.17;;
8889;SDS011;4481;43.406;24.454;2022-07-06T10:38:30;8.23;;;6.50;;
8889;SDS011;4481;43.406;24.454;2022-07-06T10:40:58;8.10;;;7.30;;
8889;SDS011;4481;43.406;24.454;2022-07-06T10:43:31;7.90;;;7.10;;
8889;SDS011;4481;43.406;24.454;2022-07-06T10:45:59;7.03;;;6.33;;
8889;SDS011;4481;43.406;24.454;2022-07-06T10:48:34;8.07;;;7.20;;
8889;SDS011;4481;43.406;24.454;2022-07-06T10:51:00;8.33;;;7.47;;
8889;SDS011;4481;43.406;24.454;2022-07-06T10:53:30;11.17;;;6.90;;
8889;SDS011;4481;43.406;24.454;2022-07-06T10:55:58;11.10;;;6.83;;
8889;SDS011;4481;43.406;24.454;2022-07-06T10:58:37;7.93;;;7.13;;
8889;SDS011;4481;43.406;24.454;2022-07-06T11:01:06;8.20;;;6.93;;
8889;SDS011;4481;43.406;24.454;2022-07-06T11:03:33;8.27;;;7.40;;
8889;SDS011;4481;43.406;24.454;2022-07-06T11:06:01;7.37;;;6.37;;
8889;SDS011;4481;43.406;24.454;2022-07-06T11:08:47;7.87;;;7.03;;
8889;SDS011;4481;43.406;24.454;2022-07-06T11:11:15;7.97;;;7.17;;
8889;SDS011;4481;43.406;24.454;2022-07-06T11:13:47;10.87;;;7.20;;
8889;SDS011;4481;43.406;24.454;2022-07-06T11:16:15;7.10;;;6.33;;
8889;SDS011;4481;43.406;24.454;2022-07-06T11:18:42;10.10;;;7.43;;
8889;SDS011;4481;43.406;24.454;2022-07-06T11:21:22;9.93;;;7.63;;
8889;SDS011;4481;43.406;24.454;2022-07-06T11:23:57;8.47;;;7.37;;
8889;SDS011;4481;43.406;24.454;2022-07-06T11:26:24;8.27;;;7.30;;
8889;SDS011;4481;43.406;24.454;2022-07-06T11:28:51;8.80;;;7.03;;
8889;SDS011;4481;43.406;24.454;2022-07-06T11:31:18;11.87;;;7.77;;
8889;SDS011;4481;43.406;24.454;2022-07-06T11:33:45;8.63;;;7.80;;
8889;SDS011;4481;43.406;24.454;2022-07-06T11:36:13;9.03;;;7.33;;
8889;SDS011;4481;43.406;24.454;2022-07-06T11:38:43;9.17;;;8.00;;
8889;SDS011;4481;43.406;24.454;2022-07-06T11:41:10;8.20;;;7.40;;
8889;SDS011;4481;43.406;24.454;2022-07-06T11:43:38;9.13;;;7.23;;
8889;SDS011;4481;43.406;24.454;2022-07-06T11:46:18;7.97;;;7.17;;
8889;SDS011;4481;43.406;24.454;2022-07-06T11:48:49;7.30;;;6.60;;
8889;SDS011;4481;43.406;24.454;2022-07-06T11:51:16;6.77;;;6.07;;
8889;SDS011;4481;43.406;24.454;2022-07-06T11:53:43;8.87;;;6.70;;
8889;SDS011;4481;43.406;24.454;2022-07-06T11:56:11;8.27;;;6.60;;
8889;SDS011;4481;43.406;24.454;2022-07-06T11:58:38;7.30;;;5.70;;
8889;SDS011;4481;43.406;24.454;2022-07-06T12:01:06;7.73;;;6.80;;
8889;SDS011;4481;43.406;24.454;2022-07-06T12:03:34;7.50;;;6.50;;
8889;SDS011;4481;43.406;24.454;2022-07-06T12:06:01;6.47;;;5.80;;
8889;SDS011;4481;43.406;24.454;2022-07-06T12:08:27;8.83;;;6.73;;
8889;SDS011;4481;43.406;24.454;2022-07-06T12:10:53;7.97;;;6.27;;
8889;SDS011;4481;43.406;24.454;2022-07-06T12:13:20;6.60;;;6.00;;
8889;SDS011;4481;43.406;24.454;2022-07-06T12:15:47;6.97;;;5.70;;
8889;SDS011;4481;43.406;24.454;2022-07-06T12:18:13;8.27;;;5.20;;
8889;SDS011;4481;43.406;24.454;2022-07-06T12:20:40;5.77;;;5.17;;
8889;SDS011;4481;43.406;24.454;2022-07-06T12:23:06;8.37;;;5.80;;
8889;SDS011;4481;43.406;24.454;2022-07-06T12:25:33;7.37;;;5.67;;
8889;SDS011;4481;43.406;24.454;2022-07-06T12:28:00;6.63;;;5.30;;
8889;SDS011;4481;43.406;24.454;2022-07-06T12:30:27;6.43;;;5.50;;
8889;SDS011;4481;43.406;24.454;2022-07-06T12:35:38;7.17;;;5.80;;
8889;SDS011;4481;43.406;24.454;2022-07-06T12:38:05;6.93;;;5.87;;
8889;SDS011;4481;43.406;24.454;2022-07-06T12:40:32;6.37;;;5.73;;
8889;SDS011;4481;43.406;24.454;2022-07-06T12:42:58;5.07;;;4.57;;
8889;SDS011;4481;43.406;24.454;2022-07-06T12:45:26;7.07;;;5.10;;
8889;SDS011;4481;43.406;24.454;2022-07-06T12:47:59;6.30;;;5.33;;
8889;SDS011;4481;43.406;24.454;2022-07-06T12:50:33;5.70;;;5.10;;
8889;SDS011;4481;43.406;24.454;2022-07-06T12:53:02;5.23;;;4.73;;
8889;SDS011;4481;43.406;24.454;2022-07-06T12:55:29;5.47;;;4.90;;
8889;SDS011;4481;43.406;24.454;2022-07-06T12:57:56;4.87;;;4.33;;
8889;SDS011;4481;43.406;24.454;2022-07-06T13:00:24;5.50;;;4.60;;
8889;SDS011;4481;43.406;24.454;2022-07-06T13:02:51;5.40;;;4.20;;
8889;SDS011;4481;43.406;24.454;2022-07-06T13:05:24;5.13;;;4.60;;
8889;SDS011;4481;43.406;24.454;2022-07-06T13:07:53;6.57;;;4.93;;
8889;SDS011;4481;43.406;24.454;2022-07-06T13:10:21;5.97;;;5.20;;
8889;SDS011;4481;43.406;24.454;2022-07-06T13:12:48;6.50;;;4.97;;
8889;SDS011;4481;43.406;24.454;2022-07-06T13:15:15;5.47;;;4.30;;
8889;SDS011;4481;43.406;24.454;2022-07-06T13:17:41;5.23;;;4.73;;
8889;SDS011;4481;43.406;24.454;2022-07-06T13:20:09;9.17;;;4.93;;
8889;SDS011;4481;43.406;24.454;2022-07-06T13:22:37;8.67;;;5.30;;
8889;SDS011;4481;43.406;24.454;2022-07-06T13:25:03;5.20;;;4.70;;
8889;SDS011;4481;43.406;24.454;2022-07-06T13:27:30;5.20;;;4.47;;
8889;SDS011;4481;43.406;24.454;2022-07-06T13:29:57;5.63;;;5.13;;
8889;SDS011;4481;43.406;24.454;2022-07-06T13:32:24;5.07;;;4.57;;
8889;SDS011;4481;43.406;24.454;2022-07-06T13:34:51;5.80;;;5.30;;
8889;SDS011;4481;43.406;24.454;2022-07-06T13:37:17;4.57;;;4.17;;
8889;SDS011;4481;43.406;24.454;2022-07-06T13:39:45;5.47;;;4.97;;
8889;SDS011;4481;43.406;24.454;2022-07-06T13:42:11;4.90;;;4.43;;
8889;SDS011;4481;43.406;24.454;2022-07-06T13:44:37;5.03;;;4.57;;
8889;SDS011;4481;43.406;24.454;2022-07-06T13:47:04;4.90;;;4.50;;
8889;SDS011;4481;43.406;24.454;2022-07-06T13:49:31;7.63;;;5.03;;
8889;SDS011;4481;43.406;24.454;2022-07-06T13:51:57;5.30;;;4.53;;
8889;SDS011;4481;43.406;24.454;2022-07-06T13:54:28;4.97;;;4.47;;
8889;SDS011;4481;43.406;24.454;2022-07-06T13:56:54;4.70;;;4.10;;
8889;SDS011;4481;43.406;24.454;2022-07-06T13:59:21;4.97;;;4.47;;
8889;SDS011;4481;43.406;24.454;2022-07-06T14:01:47;6.17;;;4.07;;
8889;SDS011;4481;43.406;24.454;2022-07-06T14:04:14;5.10;;;4.60;;
8889;SDS011;4481;43.406;24.454;2022-07-06T14:06:40;5.00;;;4.60;;
8889;SDS011;4481;43.406;24.454;2022-07-06T14:09:06;4.53;;;4.13;;
8889;SDS011;4481;43.406;24.454;2022-07-06T14:11:33;5.23;;;4.53;;
8889;SDS011;4481;43.406;24.454;2022-07-06T14:13:59;4.60;;;4.20;;
8889;SDS011;4481;43.406;24.454;2022-07-06T14:16:25;4.43;;;4.00;;
8889;SDS011;4481;43.406;24.454;2022-07-06T14:18:52;5.27;;;3.63;;
8889;SDS011;4481;43.406;24.454;2022-07-06T14:21:19;4.33;;;3.97;;
8889;SDS011;4481;43.406;24.454;2022-07-06T14:23:45;6.57;;;4.10;;
8889;SDS011;4481;43.406;24.454;2022-07-06T14:26:13;4.63;;;4.13;;
8889;SDS011;4481;43.406;24.454;2022-07-06T14:28:39;4.63;;;4.23;;
8889;SDS011;4481;43.406;24.454;2022-07-06T14:31:06;4.97;;;4.47;;
8889;SDS011;4481;43.406;24.454;2022-07-06T14:33:32;5.00;;;4.60;;
8889;SDS011;4481;43.406;24.454;2022-07-06T14:35:58;4.53;;;4.13;;
8889;SDS011;4481;43.406;24.454;2022-07-06T14:38:25;4.93;;;4.43;;
8889;SDS011;4481;43.406;24.454;2022-07-06T14:40:52;4.43;;;4.03;;
8889;SDS011;4481;43.406;24.454;2022-07-06T14:43:19;5.10;;;4.00;;
8889;SDS011;4481;43.406;24.454;2022-07-06T14:45:45;4.50;;;4.10;;
8889;SDS011;4481;43.406;24.454;2022-07-06T14:48:12;5.10;;;4.13;;
8889;SDS011;4481;43.406;24.454;2022-07-06T14:50:38;5.07;;;4.33;;
8889;SDS011;4481;43.406;24.454;2022-07-06T14:53:05;4.57;;;4.17;;
8889;SDS011;4481;43.406;24.454;2022-07-06T14:55:31;3.93;;;3.57;;
8889;SDS011;4481;43.406;24.454;2022-07-06T14:57:58;4.83;;;4.23;;
8889;SDS011;4481;43.406;24.454;2022-07-06T15:00:24;3.67;;;3.37;;